Oxdrift, Canada
Current Conditions -  °F | °C
As of 7:33 PM on Friday 19 Dec 2014 (Local Time) from CYHD Reporting Station
Overcast Overcast  
Wind Chill: 10°   Ceiling: 1100
Heat Index: 21°   Visibility: 9mi
Dew Point: 19°   Wind: 10mph
Humidity: 93%   Direction: 170°S
Pressure: 30.1"   Gusts: NA
Location:  49.82°N, 92.98°W
Report Text: CYHD 200133Z AUTO 17009KT 9SM BKN011 OVC035 M06/M07 A3010 RMK SLP222
Loading
Personal Weather Stations






























Interactive Weather Map New forecast layout! Learn more

10-Day Weather Forecast

Advertisements
Track Severe Weather on mobile